createdAt,value
2018-12-05T00:00:27.424Z,3.34
2018-12-05T00:00:58.543Z,3.34
2018-12-05T00:01:29.661Z,3.34
2018-12-05T00:02:00.784Z,3.27
2018-12-05T00:02:31.912Z,3.22
2018-12-05T00:03:03.047Z,3.25
2018-12-05T00:03:34.169Z,3.25
2018-12-05T00:04:05.327Z,3.28
2018-12-05T00:04:36.445Z,3.31
2018-12-05T00:05:07.579Z,3.31
2018-12-05T00:05:38.701Z,3.32
2018-12-05T00:06:09.817Z,3.34
2018-12-05T00:06:40.932Z,3.34
2018-12-05T00:07:12.113Z,3.33
2018-12-05T00:07:43.273Z,3.34
2018-12-05T00:08:14.390Z,3.33
2018-12-05T00:08:45.518Z,3.33
2018-12-05T00:09:16.636Z,3.32
2018-12-05T00:09:47.757Z,3.32
2018-12-05T00:10:18.878Z,3.32
2018-12-05T00:10:49.997Z,3.32
2018-12-05T00:11:21.118Z,3.29
2018-12-05T00:11:52.233Z,3.29
2018-12-05T00:12:23.384Z,3.28
2018-12-05T00:12:54.513Z,3.27
2018-12-05T00:13:25.665Z,3.27
2018-12-05T00:13:56.799Z,3.27
2018-12-05T00:14:27.962Z,3.30
2018-12-05T00:14:59.085Z,3.30
2018-12-05T00:15:30.236Z,3.32
2018-12-05T00:16:01.383Z,3.32
2018-12-05T00:16:32.521Z,3.34
2018-12-05T00:17:03.633Z,3.34
2018-12-05T00:17:34.750Z,3.35
2018-12-05T00:18:05.865Z,3.36
2018-12-05T00:18:37.015Z,3.38
2018-12-05T00:19:08.132Z,3.35
2018-12-05T00:19:39.301Z,3.34
2018-12-05T00:20:10.418Z,3.33
2018-12-05T00:20:41.542Z,3.35
2018-12-05T00:21:12.675Z,3.36
2018-12-05T00:21:43.795Z,3.38
2018-12-05T00:22:14.925Z,3.39
2018-12-05T00:22:46.051Z,3.41
2018-12-05T00:23:17.159Z,3.42
2018-12-05T00:23:48.271Z,3.44
2018-12-05T00:24:19.394Z,3.44
2018-12-05T00:24:51.215Z,3.45
2018-12-05T00:25:22.379Z,3.46
2018-12-05T00:25:53.488Z,3.26
2018-12-05T00:26:24.601Z,3.45
2018-12-05T00:26:55.721Z,3.45
2018-12-05T00:27:26.834Z,3.46
2018-12-05T00:27:57.946Z,3.48
2018-12-05T00:28:29.071Z,3.48
2018-12-05T00:29:00.177Z,3.47
2018-12-05T00:29:31.290Z,3.49
2018-12-05T00:30:02.444Z,3.48
2018-12-05T00:30:33.565Z,3.50
2018-12-05T00:31:04.680Z,3.51
2018-12-05T00:31:35.791Z,3.50
2018-12-05T00:32:06.940Z,3.52
2018-12-05T00:32:38.095Z,3.53
2018-12-05T00:33:09.216Z,3.52
2018-12-05T00:33:40.425Z,3.48
2018-12-05T00:34:11.689Z,3.47
2018-12-05T00:34:42.797Z,3.47
2018-12-05T00:35:13.953Z,3.48
2018-12-05T00:35:45.182Z,3.50
2018-12-05T00:36:16.298Z,3.49
2018-12-05T00:36:47.428Z,3.50
2018-12-05T00:37:18.557Z,3.52
2018-12-05T00:37:49.661Z,3.52
2018-12-05T00:38:20.786Z,3.55
2018-12-05T00:38:51.910Z,3.56
2018-12-05T00:39:23.034Z,3.59
2018-12-05T00:39:54.186Z,3.61
2018-12-05T00:40:25.294Z,3.62
2018-12-05T00:40:56.396Z,3.63
2018-12-05T00:41:27.549Z,3.65
2018-12-05T00:41:58.716Z,3.64
2018-12-05T00:42:29.833Z,3.66
2018-12-05T00:43:00.950Z,3.65
2018-12-05T00:43:32.066Z,3.67
2018-12-05T00:44:03.176Z,3.68
2018-12-05T00:44:34.280Z,3.67
2018-12-05T00:45:05.405Z,3.66
2018-12-05T00:45:36.519Z,3.67
2018-12-05T00:46:07.637Z,3.66
2018-12-05T00:46:38.754Z,3.65
2018-12-05T00:47:09.906Z,3.66
2018-12-05T00:47:42.235Z,3.68
2018-12-05T00:48:13.351Z,3.67
2018-12-05T00:48:44.464Z,3.68
2018-12-05T00:49:15.581Z,3.70
2018-12-05T00:49:46.703Z,3.72
2018-12-05T00:50:17.817Z,3.74
2018-12-05T00:50:48.925Z,3.77
2018-12-05T00:51:20.087Z,3.78
2018-12-05T00:51:51.199Z,3.81
2018-12-05T00:52:22.324Z,3.84
2018-12-05T00:52:53.423Z,3.84
2018-12-05T00:53:24.559Z,3.84
2018-12-05T00:53:55.669Z,3.88
2018-12-05T00:54:26.900Z,3.89
2018-12-05T00:54:57.999Z,3.89
2018-12-05T00:55:29.155Z,3.92
2018-12-05T00:56:00.260Z,3.92
2018-12-05T00:56:31.397Z,3.94
2018-12-05T00:57:02.536Z,3.94
2018-12-05T00:57:33.644Z,3.94
2018-12-05T00:58:04.761Z,3.95
2018-12-05T00:58:35.907Z,3.96
2018-12-05T00:59:07.021Z,3.95
2018-12-05T00:59:38.189Z,3.95
2018-12-05T01:00:09.304Z,3.93
2018-12-05T01:00:40.402Z,3.93
2018-12-05T01:01:11.516Z,3.91
2018-12-05T01:01:42.621Z,3.91
2018-12-05T01:02:13.749Z,3.89
2018-12-05T01:02:44.853Z,3.88
2018-12-05T01:03:16.000Z,3.88
2018-12-05T01:03:47.105Z,3.87
2018-12-05T01:04:18.221Z,3.88
2018-12-05T01:04:49.326Z,3.87
2018-12-05T01:05:20.477Z,3.88
2018-12-05T01:05:51.577Z,3.86
2018-12-05T01:06:22.708Z,3.86
2018-12-05T01:06:53.817Z,3.88
2018-12-05T01:07:24.931Z,3.88
2018-12-05T01:07:56.024Z,3.89
2018-12-05T01:08:27.124Z,3.88
2018-12-05T01:08:58.228Z,3.90
2018-12-05T01:09:29.329Z,3.89
2018-12-05T01:10:00.434Z,3.90
2018-12-05T01:10:31.580Z,3.92
2018-12-05T01:11:02.681Z,3.95
2018-12-05T01:11:33.794Z,4.00
2018-12-05T01:12:04.910Z,4.04
2018-12-05T01:12:36.634Z,4.07
2018-12-05T01:13:07.734Z,4.05
2018-12-05T01:13:38.843Z,4.05
2018-12-05T01:14:09.945Z,4.08
2018-12-05T01:14:41.036Z,4.10
2018-12-05T01:15:12.153Z,4.11
2018-12-05T01:15:43.333Z,4.11
2018-12-05T01:16:14.485Z,4.10
2018-12-05T01:16:45.646Z,4.08
2018-12-05T01:17:16.764Z,4.10
2018-12-05T01:17:47.870Z,4.08
2018-12-05T01:18:18.972Z,4.10
2018-12-05T01:18:50.122Z,4.13
2018-12-05T01:19:21.927Z,4.15
2018-12-05T01:19:53.030Z,4.17
2018-12-05T01:20:24.125Z,4.19
2018-12-05T01:20:55.233Z,4.24
2018-12-05T01:21:26.347Z,4.25
2018-12-05T01:21:57.486Z,4.24
2018-12-05T01:22:28.584Z,4.26
2018-12-05T01:22:59.736Z,4.26
2018-12-05T01:23:30.844Z,4.25
2018-12-05T01:24:01.965Z,4.24
2018-12-05T01:24:33.073Z,4.24
2018-12-05T01:25:04.199Z,4.24
2018-12-05T01:25:35.338Z,4.23
2018-12-05T01:26:06.476Z,4.23
2018-12-05T01:26:37.581Z,4.24
2018-12-05T01:27:09.821Z,4.24
2018-12-05T01:27:40.941Z,4.23
2018-12-05T01:28:12.098Z,4.22
2018-12-05T01:28:43.208Z,4.20
2018-12-05T01:29:14.357Z,4.18
2018-12-05T01:29:45.499Z,4.21
2018-12-05T01:30:16.736Z,4.20
2018-12-05T01:30:47.883Z,4.18
2018-12-05T01:31:18.977Z,4.17
2018-12-05T01:31:50.086Z,4.14
2018-12-05T01:32:21.223Z,4.15
2018-12-05T01:32:52.330Z,4.16
2018-12-05T01:33:23.459Z,4.17
2018-12-05T01:33:54.590Z,4.19
2018-12-05T01:34:25.697Z,4.17
2018-12-05T01:34:56.822Z,4.17
2018-12-05T01:35:27.937Z,4.18
2018-12-05T01:35:59.056Z,4.18
2018-12-05T01:36:30.165Z,4.17
2018-12-05T01:37:01.321Z,4.17
2018-12-05T01:37:32.444Z,4.13
2018-12-05T01:38:03.561Z,4.09
2018-12-05T01:38:34.684Z,4.10
2018-12-05T01:39:05.789Z,4.09
2018-12-05T01:39:36.893Z,4.09
2018-12-05T01:40:07.997Z,4.08
2018-12-05T01:40:39.518Z,4.08
2018-12-05T01:41:10.617Z,4.10
2018-12-05T01:41:41.724Z,4.11
2018-12-05T01:42:12.894Z,4.13
2018-12-05T01:42:44.034Z,4.13
2018-12-05T01:43:15.140Z,4.14
2018-12-05T01:43:46.266Z,4.12
2018-12-05T01:44:17.371Z,4.12
2018-12-05T01:44:48.495Z,4.12
2018-12-05T01:45:19.602Z,4.10
2018-12-05T01:45:50.718Z,4.08
2018-12-05T01:46:21.871Z,4.08
2018-12-05T01:46:53.032Z,4.07
2018-12-05T01:47:24.149Z,4.04
2018-12-05T01:47:55.284Z,4.02
2018-12-05T01:48:26.386Z,3.99
2018-12-05T01:48:57.516Z,3.98
2018-12-05T01:49:28.626Z,4.00
2018-12-05T01:49:59.733Z,4.00
2018-12-05T01:50:30.852Z,4.00
2018-12-05T01:51:01.959Z,3.99
2018-12-05T01:51:33.122Z,4.02
2018-12-05T01:52:04.227Z,4.01
2018-12-05T01:52:35.395Z,3.99
2018-12-05T01:53:06.509Z,4.00
2018-12-05T01:53:38.457Z,4.02
2018-12-05T01:54:09.581Z,4.04
2018-12-05T01:54:40.685Z,4.03
2018-12-05T01:55:11.790Z,4.04
2018-12-05T01:55:42.929Z,4.05
2018-12-05T01:56:14.051Z,4.07
2018-12-05T01:56:45.154Z,4.03
2018-12-05T01:57:16.274Z,4.02
2018-12-05T01:57:47.394Z,4.00
2018-12-05T01:58:18.516Z,3.98
2018-12-05T01:58:49.640Z,3.99
2018-12-05T01:59:20.745Z,3.97
2018-12-05T01:59:51.840Z,3.97
2018-12-05T02:00:22.984Z,3.95
2018-12-05T02:00:54.083Z,3.93
2018-12-05T02:01:25.255Z,3.89
2018-12-05T02:01:56.405Z,3.86
2018-12-05T02:02:27.597Z,3.84
2018-12-05T02:02:58.762Z,3.84
2018-12-05T02:03:29.881Z,3.85
2018-12-05T02:04:00.994Z,3.84
2018-12-05T02:04:32.097Z,3.83
2018-12-05T02:05:03.230Z,3.83
2018-12-05T02:05:34.376Z,3.81
2018-12-05T02:06:05.481Z,3.81
2018-12-05T02:06:36.573Z,3.81
2018-12-05T02:07:07.678Z,3.80
2018-12-05T02:07:38.784Z,3.80
2018-12-05T02:08:09.882Z,3.81
2018-12-05T02:08:40.984Z,3.81
2018-12-05T02:09:12.097Z,3.81
2018-12-05T02:09:43.228Z,3.83
2018-12-05T02:10:14.331Z,3.83
2018-12-05T02:10:45.487Z,3.83
2018-12-05T02:11:16.602Z,3.82
2018-12-05T02:11:47.746Z,3.82
2018-12-05T02:12:18.895Z,3.82
2018-12-05T02:12:50.001Z,3.81
2018-12-05T02:13:21.121Z,3.82
2018-12-05T02:13:52.217Z,3.82
2018-12-05T02:14:23.341Z,3.78
2018-12-05T02:14:54.454Z,3.74
2018-12-05T02:15:25.568Z,3.73
2018-12-05T02:15:56.728Z,3.72
2018-12-05T02:16:27.833Z,3.73
2018-12-05T02:16:58.973Z,3.73
2018-12-05T02:17:30.133Z,3.74
2018-12-05T02:18:01.244Z,3.74
2018-12-05T02:18:32.355Z,3.74
2018-12-05T02:19:03.512Z,3.73
2018-12-05T02:19:34.752Z,3.71
2018-12-05T02:20:05.855Z,3.73
2018-12-05T02:20:36.970Z,3.72
2018-12-05T02:21:08.079Z,3.70
2018-12-05T02:21:39.187Z,3.69
2018-12-05T02:22:10.301Z,3.68
2018-12-05T02:22:41.408Z,3.64
2018-12-05T02:23:12.572Z,3.62
2018-12-05T02:23:43.686Z,2.89
2018-12-05T02:24:14.812Z,3.58
2018-12-05T02:24:45.958Z,3.57
2018-12-05T02:25:17.098Z,3.55
2018-12-05T02:25:48.257Z,3.49
2018-12-05T02:26:19.400Z,3.48
2018-12-05T02:26:50.507Z,3.43
2018-12-05T02:27:21.613Z,3.37
2018-12-05T02:27:52.729Z,3.31
2018-12-05T02:28:23.885Z,3.31
2018-12-05T02:28:54.997Z,3.30
2018-12-05T02:29:27.249Z,3.29
2018-12-05T02:29:58.394Z,3.29
2018-12-05T02:30:29.545Z,3.28
2018-12-05T02:31:00.673Z,3.26
2018-12-05T02:31:31.801Z,3.24
2018-12-05T02:32:03.968Z,3.21
2018-12-05T02:32:35.078Z,3.21
2018-12-05T02:33:06.194Z,3.19
2018-12-05T02:33:37.320Z,3.18
2018-12-05T02:34:08.456Z,3.15
2018-12-05T02:34:39.573Z,3.14
2018-12-05T02:35:10.749Z,3.13
2018-12-05T02:35:41.857Z,3.14
2018-12-05T02:36:12.974Z,3.15
2018-12-05T02:36:44.089Z,3.15
2018-12-05T02:37:15.204Z,3.16
2018-12-05T02:37:46.332Z,3.18
2018-12-05T02:38:17.447Z,3.19
2018-12-05T02:38:48.566Z,3.18
2018-12-05T02:39:19.691Z,3.19
2018-12-05T02:39:50.877Z,3.19
2018-12-05T02:40:22.026Z,3.19
2018-12-05T02:40:53.171Z,3.16
2018-12-05T02:41:24.276Z,3.15
2018-12-05T02:41:55.387Z,3.15
2018-12-05T02:42:26.501Z,3.15
2018-12-05T02:42:57.651Z,3.15
2018-12-05T02:43:28.856Z,3.15
2018-12-05T02:43:59.972Z,3.14
2018-12-05T02:44:31.097Z,3.15
2018-12-05T02:45:02.300Z,3.14
2018-12-05T02:45:33.575Z,3.15
2018-12-05T02:46:04.681Z,3.16
2018-12-05T02:46:35.782Z,3.16
2018-12-05T02:47:06.927Z,3.15
2018-12-05T02:47:38.070Z,3.16
2018-12-05T02:48:09.186Z,3.16
2018-12-05T02:48:40.308Z,3.12
2018-12-05T02:49:11.421Z,3.11
2018-12-05T02:49:42.525Z,3.10
2018-12-05T02:50:13.642Z,3.10
2018-12-05T02:50:44.747Z,3.08
2018-12-05T02:51:15.863Z,3.07
2018-12-05T02:51:46.970Z,3.06
2018-12-05T02:52:18.091Z,3.06
2018-12-05T02:52:49.237Z,3.06
2018-12-05T02:53:20.358Z,3.05
2018-12-05T02:53:51.476Z,3.06
2018-12-05T02:54:22.622Z,3.04
2018-12-05T02:54:53.737Z,3.03
2018-12-05T02:55:24.836Z,2.98
2018-12-05T02:55:55.950Z,2.95
2018-12-05T02:56:27.096Z,2.95
2018-12-05T02:56:58.224Z,2.95
2018-12-05T02:57:29.339Z,2.98
2018-12-05T02:58:00.522Z,2.97
2018-12-05T02:58:31.701Z,3.00
2018-12-05T02:59:02.814Z,2.97
2018-12-05T02:59:33.921Z,2.95
2018-12-05T03:00:05.047Z,2.95
2018-12-05T03:00:36.164Z,2.97
2018-12-05T03:01:07.309Z,2.97
2018-12-05T03:01:38.422Z,2.97
2018-12-05T03:02:09.583Z,2.95
2018-12-05T03:02:40.745Z,2.96
2018-12-05T03:03:11.854Z,2.96
2018-12-05T03:03:42.974Z,2.95
2018-12-05T03:04:14.084Z,2.94
2018-12-05T03:04:45.218Z,2.92
2018-12-05T03:05:16.327Z,2.92
2018-12-05T03:05:47.437Z,2.91
2018-12-05T03:06:18.545Z,2.89
2018-12-05T03:06:49.670Z,2.88
2018-12-05T03:07:20.794Z,2.88
2018-12-05T03:07:51.976Z,2.86
2018-12-05T03:08:23.186Z,2.85
2018-12-05T03:08:54.357Z,2.83
2018-12-05T03:09:25.516Z,2.81
2018-12-05T03:09:56.619Z,2.81
2018-12-05T03:10:27.748Z,2.81
2018-12-05T03:10:58.864Z,2.81
2018-12-05T03:11:29.981Z,2.80
2018-12-05T03:12:01.092Z,2.81
2018-12-05T03:12:32.211Z,2.73
2018-12-05T03:13:03.339Z,2.68
2018-12-05T03:13:34.456Z,2.65
2018-12-05T03:14:05.586Z,2.65
2018-12-05T03:14:36.740Z,2.62
2018-12-05T03:15:07.869Z,2.62
2018-12-05T03:15:39.037Z,2.61
2018-12-05T03:16:10.149Z,2.63
2018-12-05T03:16:41.267Z,2.63
2018-12-05T03:17:12.368Z,2.62
2018-12-05T03:17:43.475Z,2.60
2018-12-05T03:18:14.580Z,2.60
2018-12-05T03:18:45.726Z,2.58
2018-12-05T03:19:16.842Z,2.57
2018-12-05T03:19:47.985Z,2.54
2018-12-05T03:20:19.147Z,2.50
2018-12-05T03:20:50.270Z,2.50
2018-12-05T03:21:21.543Z,2.46
2018-12-05T03:21:52.685Z,2.47
2018-12-05T03:22:23.795Z,2.45
2018-12-05T03:22:54.920Z,2.42
2018-12-05T03:23:26.046Z,2.40
2018-12-05T03:23:57.154Z,2.39
2018-12-05T03:24:28.273Z,2.38
2018-12-05T03:24:59.421Z,2.36
2018-12-05T03:25:30.540Z,2.32
2018-12-05T03:26:01.683Z,2.27
2018-12-05T03:26:32.837Z,2.26
2018-12-05T03:27:03.995Z,2.25
2018-12-05T03:27:35.114Z,2.24
2018-12-05T03:28:06.297Z,2.25
2018-12-05T03:28:37.409Z,2.23
2018-12-05T03:29:08.534Z,2.24
2018-12-05T03:29:39.636Z,2.22
2018-12-05T03:30:10.763Z,2.22
2018-12-05T03:30:41.924Z,2.20
2018-12-05T03:31:13.106Z,2.18
2018-12-05T03:31:44.221Z,2.17
2018-12-05T03:32:15.363Z,2.18
2018-12-05T03:32:46.530Z,2.16
2018-12-05T03:33:17.700Z,2.14
2018-12-05T03:33:48.829Z,2.15
2018-12-05T03:34:19.946Z,2.13
2018-12-05T03:34:51.068Z,2.09
2018-12-05T03:35:22.180Z,2.09
2018-12-05T03:35:53.293Z,2.06
2018-12-05T03:36:24.402Z,2.02
2018-12-05T03:36:55.558Z,1.98
2018-12-05T03:37:26.683Z,1.95
2018-12-05T03:37:57.830Z,1.93
2018-12-05T03:38:28.971Z,1.94
2018-12-05T03:39:00.074Z,1.90
2018-12-05T03:39:31.189Z,1.89
2018-12-05T03:40:02.306Z,1.89
2018-12-05T03:40:33.534Z,1.91
2018-12-05T03:41:04.681Z,1.89
2018-12-05T03:41:35.822Z,1.87
2018-12-05T03:42:06.929Z,1.87
2018-12-05T03:42:38.044Z,1.88
2018-12-05T03:43:09.178Z,1.85
2018-12-05T03:43:40.285Z,1.85
2018-12-05T03:44:11.399Z,1.82
2018-12-05T03:44:42.511Z,1.81
2018-12-05T03:45:13.637Z,1.80
2018-12-05T03:45:44.793Z,1.80
2018-12-05T03:46:15.922Z,1.80
2018-12-05T03:46:47.078Z,1.79
2018-12-05T03:47:18.189Z,1.80
2018-12-05T03:47:49.293Z,1.81
2018-12-05T03:48:20.396Z,1.82
2018-12-05T03:48:51.498Z,1.84
2018-12-05T03:49:22.615Z,1.83
2018-12-05T03:49:53.850Z,1.82
2018-12-05T03:50:24.957Z,1.82
2018-12-05T03:50:56.063Z,1.81
2018-12-05T03:51:27.241Z,1.82
2018-12-05T03:51:58.351Z,-1.51
2018-12-05T03:52:29.469Z,1.77
2018-12-05T03:53:00.573Z,1.79
2018-12-05T03:53:31.730Z,1.79
2018-12-05T03:54:02.845Z,1.78
2018-12-05T03:54:33.969Z,1.79
2018-12-05T03:55:05.078Z,1.81
2018-12-05T03:55:36.178Z,1.84
2018-12-05T03:56:07.286Z,1.87
2018-12-05T03:56:38.442Z,1.88
2018-12-05T03:57:09.550Z,1.89
2018-12-05T03:57:40.675Z,1.91
2018-12-05T03:58:11.820Z,1.90
2018-12-05T03:58:42.932Z,1.89
2018-12-05T03:59:14.045Z,1.90
2018-12-05T03:59:45.162Z,1.89
2018-12-05T04:00:16.291Z,1.88
2018-12-05T04:00:47.427Z,1.91
2018-12-05T04:01:18.536Z,1.90
2018-12-05T04:01:49.695Z,1.89
2018-12-05T04:02:20.853Z,1.92
2018-12-05T04:02:51.965Z,1.92
2018-12-05T04:03:23.083Z,1.91
2018-12-05T04:03:54.248Z,1.92
2018-12-05T04:04:25.361Z,1.94
2018-12-05T04:04:56.465Z,1.93
2018-12-05T04:05:27.578Z,1.93
2018-12-05T04:05:58.681Z,1.95
2018-12-05T04:06:29.823Z,1.94
2018-12-05T04:07:00.928Z,1.94
2018-12-05T04:07:32.075Z,1.94
2018-12-05T04:08:03.195Z,1.97
2018-12-05T04:08:34.318Z,1.98
2018-12-05T04:09:05.431Z,1.99
2018-12-05T04:09:36.543Z,2.00
2018-12-05T04:10:07.651Z,2.03
2018-12-05T04:10:38.768Z,2.02
2018-12-05T04:11:09.884Z,2.04
2018-12-05T04:11:40.993Z,2.06
2018-12-05T04:12:12.145Z,2.10
2018-12-05T04:12:43.261Z,2.13
2018-12-05T04:13:14.373Z,2.17
2018-12-05T04:13:45.500Z,2.18
2018-12-05T04:14:16.608Z,2.21
2018-12-05T04:14:47.708Z,2.26
2018-12-05T04:15:18.822Z,2.27
2018-12-05T04:15:49.932Z,2.28
2018-12-05T04:16:21.051Z,2.28
2018-12-05T04:16:52.160Z,2.27
2018-12-05T04:17:23.303Z,2.25
2018-12-05T04:17:54.411Z,2.23
2018-12-05T04:18:25.547Z,2.21
2018-12-05T04:18:56.665Z,2.20
2018-12-05T04:19:27.823Z,2.19
2018-12-05T04:19:58.932Z,0.14
2018-12-05T04:20:30.054Z,2.16
2018-12-05T04:21:01.211Z,2.14
2018-12-05T04:21:32.327Z,2.14
2018-12-05T04:22:03.453Z,2.14
2018-12-05T04:22:34.576Z,2.13
2018-12-05T04:23:05.692Z,2.13
2018-12-05T04:23:36.801Z,2.12
2018-12-05T04:24:08.003Z,2.13
2018-12-05T04:24:39.157Z,2.12
2018-12-05T04:25:10.279Z,2.10
2018-12-05T04:25:41.390Z,2.09
2018-12-05T04:26:12.538Z,2.08
2018-12-05T04:26:43.651Z,2.06
2018-12-05T04:27:14.759Z,2.05
2018-12-05T04:27:45.906Z,2.04
2018-12-05T04:28:17.017Z,2.06
2018-12-05T04:28:48.115Z,2.09
2018-12-05T04:29:19.240Z,2.12
2018-12-05T04:29:50.360Z,2.12
2018-12-05T04:30:21.468Z,2.11
2018-12-05T04:30:52.589Z,2.10
2018-12-05T04:31:23.733Z,2.10
2018-12-05T04:31:54.860Z,2.09
2018-12-05T04:32:25.974Z,2.07
2018-12-05T04:32:57.101Z,2.08
2018-12-05T04:33:28.226Z,2.03
2018-12-05T04:33:59.381Z,2.01
2018-12-05T04:34:30.492Z,2.02
2018-12-05T04:35:01.621Z,2.00
2018-12-05T04:35:32.746Z,2.00
2018-12-05T04:36:03.870Z,2.01
2018-12-05T04:36:35.017Z,2.01
2018-12-05T04:37:06.125Z,2.00
2018-12-05T04:37:37.235Z,2.01
2018-12-05T04:38:08.333Z,2.01
2018-12-05T04:38:39.440Z,2.02
2018-12-05T04:39:11.138Z,2.06
2018-12-05T04:39:42.246Z,2.09
2018-12-05T04:40:13.351Z,2.12
2018-12-05T04:40:44.491Z,2.14
2018-12-05T04:41:15.625Z,2.18
2018-12-05T04:41:46.808Z,2.23
2018-12-05T04:42:17.925Z,2.29
2018-12-05T04:42:49.047Z,2.33
2018-12-05T04:43:20.156Z,2.36
2018-12-05T04:43:51.279Z,2.41
2018-12-05T04:44:22.385Z,2.43
2018-12-05T04:44:53.494Z,2.46
2018-12-05T04:45:24.633Z,2.50
2018-12-05T04:45:55.752Z,2.52
2018-12-05T04:46:26.867Z,2.52
2018-12-05T04:46:58.036Z,2.52
2018-12-05T04:47:29.144Z,2.52
2018-12-05T04:48:00.257Z,2.53
2018-12-05T04:48:31.361Z,2.53
2018-12-05T04:49:02.474Z,2.53
2018-12-05T04:49:33.587Z,2.53
2018-12-05T04:50:04.696Z,2.54
2018-12-05T04:50:35.810Z,2.55
2018-12-05T04:51:06.912Z,2.55
2018-12-05T04:51:38.027Z,2.54
2018-12-05T04:52:09.181Z,2.53
2018-12-05T04:52:40.291Z,2.54
2018-12-05T04:53:11.434Z,2.56
2018-12-05T04:53:42.545Z,2.54
2018-12-05T04:54:13.658Z,2.55
2018-12-05T04:54:44.764Z,2.54
2018-12-05T04:55:15.899Z,2.51
2018-12-05T04:55:47.019Z,2.54
2018-12-05T04:56:18.132Z,2.55
2018-12-05T04:56:49.253Z,2.56
2018-12-05T04:57:20.372Z,2.57
2018-12-05T04:57:51.477Z,2.58
2018-12-05T04:58:22.625Z,2.59
2018-12-05T04:58:53.733Z,2.60
2018-12-05T04:59:24.854Z,2.61
2018-12-05T04:59:55.968Z,2.62
2018-12-05T05:00:27.138Z,2.60
2018-12-05T05:00:58.264Z,2.63
2018-12-05T05:01:29.374Z,2.67
2018-12-05T05:02:00.538Z,2.69
2018-12-05T05:02:31.681Z,2.69
2018-12-05T05:03:02.792Z,2.68
2018-12-05T05:03:33.905Z,2.71
2018-12-05T05:04:05.029Z,2.75
2018-12-05T05:04:36.132Z,2.67
2018-12-05T05:05:07.244Z,2.52
2018-12-05T05:05:38.349Z,2.28
2018-12-05T05:06:09.449Z,2.36
2018-12-05T05:06:41.779Z,2.40
2018-12-05T05:07:13.309Z,2.43
2018-12-05T05:07:44.561Z,2.46
2018-12-05T05:08:15.672Z,2.48
2018-12-05T05:08:46.806Z,2.46
2018-12-05T05:09:17.932Z,2.47
2018-12-05T05:09:49.049Z,2.50
2018-12-05T05:10:20.192Z,2.51
2018-12-05T05:10:51.302Z,2.56
2018-12-05T05:11:22.414Z,2.60
2018-12-05T05:11:53.534Z,2.66
2018-12-05T05:12:24.669Z,2.68
2018-12-05T05:12:55.789Z,2.69
2018-12-05T05:13:26.946Z,2.71
2018-12-05T05:13:58.067Z,2.74
2018-12-05T05:14:29.189Z,2.75
2018-12-05T05:15:00.311Z,2.76
2018-12-05T05:15:31.419Z,2.70
2018-12-05T05:16:02.554Z,2.65
2018-12-05T05:16:33.672Z,2.57
2018-12-05T05:17:04.792Z,2.51
2018-12-05T05:17:35.918Z,2.49
2018-12-05T05:18:07.039Z,2.44
2018-12-05T05:18:38.200Z,2.40
2018-12-05T05:19:09.330Z,2.35
2018-12-05T05:19:40.442Z,2.37
2018-12-05T05:20:12.037Z,2.40
2018-12-05T05:20:43.410Z,2.43
2018-12-05T05:21:14.520Z,2.40
2018-12-05T05:21:45.645Z,2.34
2018-12-05T05:22:16.809Z,2.35
2018-12-05T05:22:47.931Z,2.39
2018-12-05T05:23:19.056Z,2.45
2018-12-05T05:23:50.188Z,2.45
2018-12-05T05:24:21.296Z,2.41
2018-12-05T05:24:52.552Z,2.44
2018-12-05T05:25:23.661Z,2.46
2018-12-05T05:25:54.783Z,2.59
2018-12-05T05:26:25.901Z,2.66
2018-12-05T05:26:57.016Z,2.70
2018-12-05T05:27:28.152Z,2.73
2018-12-05T05:27:59.280Z,2.75
2018-12-05T05:28:30.393Z,2.75
2018-12-05T05:29:01.500Z,2.72
2018-12-05T05:29:32.615Z,2.64
2018-12-05T05:30:03.749Z,2.55
2018-12-05T05:30:34.880Z,2.57
2018-12-05T05:31:06.005Z,2.56
2018-12-05T05:31:37.134Z,2.53
2018-12-05T05:32:08.278Z,2.51
2018-12-05T05:32:39.395Z,2.47
2018-12-05T05:33:10.508Z,2.45
2018-12-05T05:33:41.620Z,2.49
2018-12-05T05:34:12.731Z,2.51
2018-12-05T05:34:43.838Z,2.53
2018-12-05T05:35:14.946Z,2.59
2018-12-05T05:35:46.101Z,2.64
2018-12-05T05:36:17.208Z,2.69
2018-12-05T05:36:48.309Z,2.71
2018-12-05T05:37:19.484Z,2.74
2018-12-05T05:37:50.647Z,2.77
2018-12-05T05:38:21.850Z,2.83
2018-12-05T05:38:52.962Z,2.86
2018-12-05T05:39:24.076Z,2.89
2018-12-05T05:39:55.176Z,2.92
2018-12-05T05:40:26.279Z,2.95
2018-12-05T05:40:57.387Z,2.97
2018-12-05T05:41:28.498Z,3.00
2018-12-05T05:41:59.605Z,3.01
2018-12-05T05:42:30.724Z,3.02
2018-12-05T05:43:01.837Z,3.04
2018-12-05T05:43:32.962Z,3.06
2018-12-05T05:44:04.077Z,3.07
2018-12-05T05:44:35.228Z,3.05
2018-12-05T05:45:06.340Z,3.06
2018-12-05T05:45:37.449Z,3.07
2018-12-05T05:46:08.570Z,3.10
2018-12-05T05:46:39.674Z,3.12
2018-12-05T05:47:10.779Z,3.13
2018-12-05T05:47:41.919Z,3.15
2018-12-05T05:48:13.057Z,3.19
2018-12-05T05:48:44.169Z,3.20
2018-12-05T05:49:15.281Z,3.20
2018-12-05T05:49:46.434Z,3.25
2018-12-05T05:50:17.565Z,1.40
2018-12-05T05:50:48.668Z,3.29
2018-12-05T05:51:19.801Z,3.31
2018-12-05T05:51:50.926Z,3.31
2018-12-05T05:52:22.033Z,3.32
2018-12-05T05:52:53.195Z,3.34
2018-12-05T05:53:24.289Z,3.37
2018-12-05T05:53:55.398Z,3.40
2018-12-05T05:54:26.592Z,3.44
2018-12-05T05:54:57.779Z,3.48
2018-12-05T05:55:28.892Z,3.54
2018-12-05T05:56:00.004Z,3.54
2018-12-05T05:56:31.121Z,3.59
2018-12-05T05:57:02.291Z,3.62
2018-12-05T05:57:33.441Z,3.62
2018-12-05T05:58:04.558Z,3.62
2018-12-05T05:58:35.688Z,3.57
2018-12-05T05:59:06.824Z,3.57
2018-12-05T05:59:37.953Z,3.60
2018-12-05T06:00:09.068Z,3.63
2018-12-05T06:00:40.182Z,3.65
2018-12-05T06:01:11.298Z,3.67
2018-12-05T06:01:42.450Z,3.68
2018-12-05T06:02:13.570Z,3.69
2018-12-05T06:02:44.676Z,3.76
2018-12-05T06:03:15.786Z,3.79
2018-12-05T06:03:46.927Z,3.83
2018-12-05T06:04:18.056Z,3.89
2018-12-05T06:04:49.155Z,3.94
2018-12-05T06:05:20.265Z,4.03
2018-12-05T06:05:51.374Z,4.05
2018-12-05T06:06:22.715Z,4.10
2018-12-05T06:06:53.881Z,4.14
2018-12-05T06:07:25.006Z,4.19
2018-12-05T06:07:56.119Z,4.24
2018-12-05T06:08:27.336Z,4.33
2018-12-05T06:08:58.454Z,4.37
2018-12-05T06:09:29.553Z,4.39
2018-12-05T06:10:00.661Z,4.43
2018-12-05T06:10:31.776Z,4.46
2018-12-05T06:11:02.873Z,4.47
2018-12-05T06:11:34.009Z,4.50
2018-12-05T06:12:05.104Z,4.55
2018-12-05T06:12:36.427Z,4.58
2018-12-05T06:13:07.663Z,4.60
2018-12-05T06:13:38.763Z,4.64
2018-12-05T06:14:09.871Z,4.64
2018-12-05T06:14:40.973Z,4.65
2018-12-05T06:15:12.094Z,4.66
2018-12-05T06:15:43.219Z,4.67
2018-12-05T06:16:14.620Z,4.70
2018-12-05T06:16:45.797Z,4.73
2018-12-05T06:17:16.917Z,4.72
2018-12-05T06:17:48.380Z,4.71
2018-12-05T06:18:19.573Z,4.74
2018-12-05T06:18:50.754Z,4.79
2018-12-05T06:19:21.873Z,4.81
2018-12-05T06:19:52.986Z,4.87
2018-12-05T06:20:24.113Z,4.91
2018-12-05T06:20:55.216Z,4.93
2018-12-05T06:21:26.337Z,4.95
2018-12-05T06:21:57.488Z,4.98
2018-12-05T06:22:28.595Z,5.00
2018-12-05T06:22:59.701Z,5.04
2018-12-05T06:23:30.793Z,5.04
2018-12-05T06:24:01.911Z,5.07
2018-12-05T06:24:33.001Z,5.07
2018-12-05T06:25:04.104Z,5.05
2018-12-05T06:25:35.218Z,5.07
2018-12-05T06:26:06.339Z,5.09
2018-12-05T06:26:37.442Z,5.04
2018-12-05T06:27:09.301Z,4.90
2018-12-05T06:27:40.404Z,4.80
2018-12-05T06:28:11.539Z,4.75
2018-12-05T06:28:42.636Z,4.76
2018-12-05T06:29:13.743Z,4.74
2018-12-05T06:29:44.845Z,4.71
2018-12-05T06:30:15.981Z,4.61
2018-12-05T06:30:47.096Z,4.63
2018-12-05T06:31:18.206Z,4.69
2018-12-05T06:31:49.313Z,4.71
2018-12-05T06:32:20.408Z,4.71
2018-12-05T06:32:51.567Z,4.64
2018-12-05T06:33:22.657Z,4.61
2018-12-05T06:33:53.768Z,4.62
2018-12-05T06:34:24.895Z,4.62
2018-12-05T06:34:55.999Z,4.58
2018-12-05T06:35:27.145Z,4.59
2018-12-05T06:35:58.372Z,4.65
2018-12-05T06:36:29.473Z,4.37
2018-12-05T06:37:00.578Z,4.77
2018-12-05T06:37:31.723Z,4.80
2018-12-05T06:38:02.895Z,4.89
2018-12-05T06:38:34.005Z,4.95
2018-12-05T06:39:05.112Z,5.00
2018-12-05T06:39:36.216Z,5.06
2018-12-05T06:40:07.325Z,5.12
2018-12-05T06:40:38.473Z,5.20
2018-12-05T06:41:09.585Z,5.29
2018-12-05T06:41:40.690Z,5.34
2018-12-05T06:42:11.788Z,5.39
2018-12-05T06:42:42.881Z,5.45
2018-12-05T06:43:13.996Z,5.52
2018-12-05T06:43:45.150Z,5.59
2018-12-05T06:44:16.245Z,5.67
2018-12-05T06:44:47.383Z,5.75
2018-12-05T06:45:18.482Z,5.84
2018-12-05T06:45:50.530Z,5.92
2018-12-05T06:46:21.649Z,5.96
2018-12-05T06:46:52.758Z,5.98
2018-12-05T06:47:23.918Z,6.01
2018-12-05T06:47:55.025Z,6.05
2018-12-05T06:48:26.141Z,6.08
2018-12-05T06:48:57.296Z,6.13
2018-12-05T06:49:28.402Z,6.18
2018-12-05T06:49:59.526Z,6.25
2018-12-05T06:50:31.621Z,6.29
2018-12-05T06:51:02.730Z,6.34
2018-12-05T06:51:33.994Z,6.42
2018-12-05T06:52:09.294Z,6.48
2018-12-05T06:52:40.470Z,6.51
2018-12-05T06:53:12.335Z,6.56
2018-12-05T06:53:44.386Z,6.59
2018-12-05T06:54:15.553Z,6.63
2018-12-05T06:54:46.696Z,6.68